createdAt,value
2019-03-01T00:00:19.580Z,37.90
2019-03-01T00:02:48.245Z,38.65
2019-03-01T00:05:46.983Z,38.75
2019-03-01T00:08:18.155Z,36.45
2019-03-01T00:11:00.418Z,36.93
2019-03-01T00:13:48.880Z,40.08
2019-03-01T00:16:33.847Z,39.78
2019-03-01T00:19:15.815Z,35.90
2019-03-01T00:22:19.580Z,39.13
2019-03-01T00:25:04.517Z,39.85
2019-03-01T00:27:59.029Z,39.15
2019-03-01T00:30:40.999Z,40.40
2019-03-01T00:33:35.083Z,40.05
2019-03-01T00:36:28.877Z,38.08
2019-03-01T00:39:17.160Z,36.95
2019-03-01T00:41:56.355Z,38.65
2019-03-01T00:44:44.926Z,37.42
2019-03-01T00:47:14.292Z,41.48
2019-03-01T00:49:43.049Z,39.85
2019-03-01T00:52:11.756Z,33.67
2019-03-01T00:54:40.439Z,37.48
2019-03-01T00:57:09.265Z,38.10
2019-03-01T00:59:37.997Z,39.15
2019-03-01T01:02:06.611Z,39.70
2019-03-01T01:04:35.268Z,41.10
2019-03-01T01:07:04.292Z,37.10
2019-03-01T01:09:32.959Z,39.80
2019-03-01T01:12:01.680Z,38.48
2019-03-01T01:14:30.291Z,39.95
2019-03-01T01:16:58.901Z,39.23
2019-03-01T01:19:27.632Z,40.67
2019-03-01T01:21:56.252Z,34.20
2019-03-01T01:24:24.921Z,39.20
2019-03-01T01:26:53.533Z,38.02
2019-03-01T01:29:22.147Z,37.10
2019-03-01T01:31:50.809Z,36.58
2019-03-01T01:34:19.426Z,41.77
2019-03-01T01:36:48.089Z,43.83
2019-03-01T01:39:16.698Z,43.45
2019-03-01T01:41:45.423Z,39.92
2019-03-01T01:44:14.038Z,39.85
2019-03-01T01:46:42.705Z,38.83
2019-03-01T01:49:11.314Z,39.50
2019-03-01T01:51:40.015Z,35.30
2019-03-01T01:54:08.688Z,39.38
2019-03-01T01:56:37.307Z,38.90
2019-03-01T01:59:05.916Z,34.10
2019-03-01T02:01:34.579Z,40.40
2019-03-01T02:04:03.262Z,35.15
2019-03-01T02:06:31.916Z,40.23
2019-03-01T02:09:00.614Z,43.42
2019-03-01T02:11:29.547Z,40.03
2019-03-01T02:13:58.151Z,42.75
2019-03-01T02:16:26.759Z,40.60
2019-03-01T02:18:57.909Z,38.33
2019-03-01T02:21:25.766Z,40.17
2019-03-01T02:23:54.429Z,38.83
2019-03-01T02:26:23.041Z,38.58
2019-03-01T02:28:51.701Z,37.40
2019-03-01T02:31:20.389Z,38.75
2019-03-01T02:33:49.046Z,35.10
2019-03-01T02:36:17.698Z,33.95
2019-03-01T02:38:46.430Z,36.17
2019-03-01T02:41:15.035Z,29.07
2019-03-01T02:43:43.640Z,34.75
2019-03-01T02:46:12.296Z,40.43
2019-03-01T02:48:40.907Z,37.50
2019-03-01T02:51:09.557Z,33.10
2019-03-01T02:53:38.163Z,34.50
2019-03-01T02:56:06.835Z,37.33
2019-03-01T02:58:35.567Z,38.65
2019-03-01T03:01:04.245Z,39.40
2019-03-01T03:03:32.900Z,38.88
2019-03-01T03:06:01.618Z,31.12
2019-03-01T03:08:30.274Z,36.10
2019-03-01T03:10:58.881Z,34.95
2019-03-01T03:13:27.536Z,33.10
2019-03-01T03:15:56.194Z,36.45
2019-03-01T03:18:24.796Z,37.03
2019-03-01T03:20:53.444Z,32.63
2019-03-01T03:23:22.215Z,38.00
2019-03-01T03:25:50.823Z,37.98
2019-03-01T03:28:19.443Z,35.33
2019-03-01T03:30:48.166Z,36.83
2019-03-01T03:33:16.768Z,36.08
2019-03-01T03:35:45.370Z,38.05
2019-03-01T03:38:14.023Z,33.30
2019-03-01T03:40:42.683Z,38.08
2019-03-01T03:43:11.282Z,35.63
2019-03-01T03:45:39.938Z,38.40
2019-03-01T03:48:08.587Z,33.18
2019-03-01T03:50:37.192Z,38.05
2019-03-01T03:53:05.843Z,35.60
2019-03-01T03:55:34.454Z,36.93
2019-03-01T03:58:03.171Z,39.65
2019-03-01T04:00:31.773Z,40.08
2019-03-01T04:03:00.489Z,34.27
2019-03-01T04:05:29.117Z,38.23
2019-03-01T04:07:57.939Z,36.98
2019-03-01T04:10:26.621Z,39.35
2019-03-01T04:12:55.379Z,37.63
2019-03-01T04:15:23.982Z,39.88
2019-03-01T04:17:52.630Z,38.60
2019-03-01T04:20:21.239Z,37.17
2019-03-01T04:22:49.909Z,34.35
2019-03-01T04:25:18.571Z,34.03
2019-03-01T04:27:47.222Z,36.20
2019-03-01T04:30:17.633Z,35.23
2019-03-01T04:32:46.284Z,35.52
2019-03-01T04:35:14.990Z,27.58
2019-03-01T04:37:43.686Z,31.00
2019-03-01T04:40:14.665Z,31.20
2019-03-01T04:42:43.318Z,31.70
2019-03-01T04:45:14.941Z,38.75
2019-03-01T04:47:43.590Z,36.58
2019-03-01T04:50:12.933Z,31.97
2019-03-01T04:52:41.952Z,34.03
2019-03-01T04:55:14.465Z,33.45
2019-03-01T04:57:43.146Z,34.63
2019-03-01T05:00:15.728Z,40.28
2019-03-01T05:02:44.395Z,34.53
2019-03-01T05:05:13.616Z,38.40
2019-03-01T05:07:42.278Z,37.08
2019-03-01T05:10:12.894Z,29.67
2019-03-01T05:12:41.513Z,36.23
2019-03-01T05:15:21.500Z,36.58
2019-03-01T05:17:50.234Z,35.15
2019-03-01T05:20:18.966Z,35.88
2019-03-01T05:22:47.574Z,31.15
2019-03-01T05:25:16.349Z,34.53
2019-03-01T05:27:44.994Z,35.58
2019-03-01T05:30:16.750Z,30.12
2019-03-01T05:32:45.400Z,33.95
2019-03-01T05:35:14.399Z,30.17
2019-03-01T05:37:43.179Z,34.45
2019-03-01T05:40:16.388Z,35.17
2019-03-01T05:42:44.991Z,32.55
2019-03-01T05:45:26.755Z,34.45
2019-03-01T05:47:55.360Z,31.70
2019-03-01T05:50:23.965Z,33.50
2019-03-01T05:52:52.617Z,34.40
2019-03-01T05:55:21.222Z,31.07
2019-03-01T05:58:28.764Z,34.50
2019-03-01T06:01:24.271Z,33.73
2019-03-01T06:04:06.627Z,32.40
2019-03-01T06:06:46.303Z,31.12
2019-03-01T06:09:42.002Z,32.28
2019-03-01T06:12:37.977Z,31.93
2019-03-01T06:15:25.739Z,27.95
2019-03-01T06:18:35.208Z,29.27
2019-03-01T06:21:17.378Z,30.20
2019-03-01T06:24:15.143Z,31.05
2019-03-01T06:27:17.977Z,24.87
2019-03-01T06:30:02.946Z,29.77
2019-03-01T06:32:58.742Z,27.52
2019-03-01T06:35:46.343Z,30.92
2019-03-01T06:38:31.134Z,30.60
2019-03-01T06:41:10.095Z,30.68
2019-03-01T06:44:13.686Z,27.00
2019-03-01T06:47:07.875Z,33.80
2019-03-01T06:52:04.429Z,30.00
2019-03-01T06:54:33.086Z,31.02
2019-03-01T06:57:01.693Z,34.63
2019-03-01T06:59:30.347Z,32.58
2019-03-01T07:01:58.955Z,32.15
2019-03-01T07:04:27.605Z,32.73
2019-03-01T07:06:56.256Z,34.90
2019-03-01T07:09:24.861Z,34.75
2019-03-01T07:11:53.517Z,35.60
2019-03-01T07:14:22.121Z,34.65
2019-03-01T07:16:50.773Z,32.55
2019-03-01T07:19:19.376Z,36.33
2019-03-01T07:21:48.038Z,37.28
2019-03-01T07:24:16.690Z,33.63
2019-03-01T07:26:45.460Z,37.13
2019-03-01T07:29:14.074Z,36.33
2019-03-01T07:31:42.718Z,37.35
2019-03-01T07:34:11.327Z,39.00
2019-03-01T07:36:40.059Z,35.43
2019-03-01T07:39:11.364Z,41.23
2019-03-01T07:41:40.018Z,35.20
2019-03-01T07:44:08.625Z,37.85
2019-03-01T07:46:37.283Z,48.85
2019-03-01T07:49:05.882Z,47.23
2019-03-01T07:51:35.991Z,37.55
2019-03-01T07:54:04.790Z,35.78
2019-03-01T07:56:36.975Z,43.33
2019-03-01T07:59:03.774Z,39.13
2019-03-01T08:01:32.443Z,36.73
2019-03-01T08:04:01.957Z,34.43
2019-03-01T08:06:30.634Z,29.90
2019-03-01T08:08:59.289Z,35.90
2019-03-01T08:11:28.468Z,32.63
2019-03-01T08:13:58.278Z,33.45
2019-03-01T08:16:26.884Z,36.00
2019-03-01T08:18:55.530Z,31.73
2019-03-01T08:21:24.138Z,35.28
2019-03-01T08:23:52.795Z,36.90
2019-03-01T08:26:21.398Z,31.85
2019-03-01T08:28:50.059Z,37.38
2019-03-01T08:31:20.960Z,38.33
2019-03-01T08:33:49.058Z,38.73
2019-03-01T08:36:17.659Z,35.78
2019-03-01T08:38:46.286Z,34.67
2019-03-01T08:41:14.936Z,34.63
2019-03-01T08:43:44.686Z,34.55
2019-03-01T08:46:13.916Z,35.88
2019-03-01T08:48:42.521Z,35.33
2019-03-01T08:51:11.174Z,32.00
2019-03-01T08:53:39.777Z,35.15
2019-03-01T08:56:11.055Z,34.95
2019-03-01T08:58:41.491Z,33.95
2019-03-01T09:01:13.817Z,34.88
2019-03-01T09:03:56.226Z,36.10
2019-03-01T09:06:24.831Z,35.68
2019-03-01T09:08:53.494Z,35.65
2019-03-01T09:11:22.148Z,35.90
2019-03-01T09:13:50.753Z,39.67
2019-03-01T09:16:19.474Z,36.93
2019-03-01T09:18:50.159Z,33.85
2019-03-01T09:21:18.463Z,38.08
2019-03-01T09:23:48.046Z,40.35
2019-03-01T09:26:19.934Z,39.55
2019-03-01T09:28:47.897Z,37.15
2019-03-01T09:31:16.551Z,39.65
2019-03-01T09:33:45.233Z,37.03
2019-03-01T09:36:14.497Z,37.88
2019-03-01T09:38:44.218Z,36.83
2019-03-01T09:41:12.926Z,39.95
2019-03-01T09:43:41.579Z,37.48
2019-03-01T09:46:10.186Z,37.98
2019-03-01T09:48:38.922Z,38.80
2019-03-01T09:51:10.737Z,37.42
2019-03-01T09:53:37.909Z,38.33
2019-03-01T09:56:09.767Z,37.15
2019-03-01T09:58:36.860Z,36.48
2019-03-01T10:01:12.661Z,35.75
2019-03-01T10:03:41.318Z,37.58
2019-03-01T10:06:09.929Z,36.50
2019-03-01T10:08:38.542Z,38.90
2019-03-01T10:11:07.274Z,40.60
2019-03-01T10:16:04.824Z,34.78
2019-03-01T10:18:33.424Z,40.05
2019-03-01T10:21:02.183Z,42.62
2019-03-01T10:23:30.935Z,42.23
2019-03-01T10:25:59.588Z,39.95
2019-03-01T10:28:28.187Z,40.35
2019-03-01T10:30:56.842Z,40.78
2019-03-01T10:33:25.451Z,40.43
2019-03-01T10:35:54.102Z,47.98
2019-03-01T10:38:22.851Z,48.58
2019-03-01T10:40:51.520Z,47.83
2019-03-01T10:43:20.127Z,46.63
2019-03-01T10:45:48.729Z,50.52
2019-03-01T10:48:17.396Z,47.60
2019-03-01T10:50:46.072Z,46.25
2019-03-01T10:53:14.776Z,52.13
2019-03-01T10:55:43.499Z,48.20
2019-03-01T10:58:12.104Z,45.65
2019-03-01T11:00:40.957Z,50.98
2019-03-01T11:03:09.554Z,47.45
2019-03-01T11:05:38.210Z,48.60
2019-03-01T11:08:06.818Z,48.25
2019-03-01T11:10:40.411Z,49.35
2019-03-01T11:15:39.448Z,48.60
2019-03-01T11:18:08.105Z,46.35
2019-03-01T11:20:36.781Z,47.85
2019-03-01T11:23:05.440Z,48.30
2019-03-01T11:25:34.046Z,50.58
2019-03-01T11:28:02.732Z,49.13
2019-03-01T11:30:36.213Z,47.40
2019-03-01T11:33:05.035Z,44.58
2019-03-01T11:35:33.761Z,43.80
2019-03-01T11:38:02.415Z,47.53
2019-03-01T11:40:36.755Z,44.13
2019-03-01T11:43:06.071Z,46.00
2019-03-01T11:45:34.840Z,43.65
2019-03-01T11:48:03.918Z,44.58
2019-03-01T11:50:32.570Z,48.52
2019-03-01T11:53:01.174Z,43.30
2019-03-01T11:55:29.833Z,46.58
2019-03-01T11:57:58.448Z,50.20
2019-03-01T12:00:28.558Z,52.55
2019-03-01T12:02:57.214Z,47.98
2019-03-01T12:05:25.988Z,45.67
2019-03-01T12:07:54.713Z,42.88
2019-03-01T12:10:29.121Z,40.08
2019-03-01T12:12:57.781Z,44.60
2019-03-01T12:15:26.562Z,41.30
2019-03-01T12:17:55.221Z,51.73
2019-03-01T12:20:29.989Z,47.80
2019-03-01T12:22:58.735Z,39.65
2019-03-01T12:25:27.349Z,41.68
2019-03-01T12:27:56.007Z,45.83
2019-03-01T12:30:26.818Z,44.05
2019-03-01T12:32:55.637Z,42.98
2019-03-01T12:35:24.356Z,41.25
2019-03-01T12:37:53.735Z,40.15
2019-03-01T12:40:31.276Z,42.45
2019-03-01T12:42:59.887Z,47.38
2019-03-01T12:45:28.610Z,41.60
2019-03-01T12:47:57.367Z,43.28
2019-03-01T12:50:26.052Z,42.43
2019-03-01T12:52:54.667Z,41.15
2019-03-01T12:55:30.659Z,46.85
2019-03-01T12:57:59.385Z,46.33
2019-03-01T13:00:37.008Z,43.70
2019-03-01T13:03:08.954Z,42.48
2019-03-01T13:05:36.025Z,44.38
2019-03-01T13:08:04.755Z,46.15
2019-03-01T13:10:40.228Z,39.08
2019-03-01T13:13:08.543Z,40.98
2019-03-01T13:15:37.533Z,42.73
2019-03-01T13:18:06.143Z,40.88
2019-03-01T13:20:37.012Z,43.48
2019-03-01T13:23:06.254Z,38.98
2019-03-01T13:25:35.157Z,44.55
2019-03-01T13:28:03.838Z,41.05
2019-03-01T13:30:35.463Z,42.83
2019-03-01T13:33:03.591Z,39.40
2019-03-01T13:35:32.697Z,34.98
2019-03-01T13:38:01.349Z,41.25
2019-03-01T13:40:29.959Z,41.63
2019-03-01T13:42:58.623Z,43.42
2019-03-01T13:45:27.279Z,41.68
2019-03-01T13:47:56.006Z,43.10
2019-03-01T13:50:24.619Z,48.28
2019-03-01T13:52:53.271Z,38.92
2019-03-01T13:55:23.429Z,50.35
2019-03-01T13:57:52.329Z,48.63
2019-03-01T14:00:22.093Z,43.33
2019-03-01T14:02:51.027Z,50.45
2019-03-01T14:05:19.818Z,53.83
2019-03-01T14:07:55.553Z,54.13
2019-03-01T14:10:28.670Z,42.65
2019-03-01T14:12:57.302Z,48.40
2019-03-01T14:15:25.941Z,39.33
2019-03-01T14:18:00.449Z,46.92
2019-03-01T14:20:28.335Z,46.23
2019-03-01T14:22:57.188Z,43.45
2019-03-01T14:25:25.843Z,35.05
2019-03-01T14:27:54.533Z,37.42
2019-03-01T14:30:33.075Z,36.93
2019-03-01T14:33:00.388Z,36.70
2019-03-01T14:35:36.188Z,35.90
2019-03-01T14:38:05.156Z,33.85
2019-03-01T14:40:33.761Z,33.38
2019-03-01T14:43:06.411Z,31.87
2019-03-01T14:45:37.406Z,30.67
2019-03-01T14:48:10.455Z,30.62
2019-03-01T14:50:40.057Z,29.35
2019-03-01T14:53:10.977Z,29.92
2019-03-01T14:55:50.609Z,30.77
2019-03-01T14:58:39.522Z,29.85
2019-03-01T15:01:16.922Z,27.17
2019-03-01T15:04:28.996Z,23.98
2019-03-01T15:07:07.771Z,26.37
2019-03-01T15:09:41.857Z,25.15
2019-03-01T15:12:19.638Z,25.05
2019-03-01T15:14:49.562Z,27.50
2019-03-01T15:17:18.318Z,22.22
2019-03-01T15:19:46.494Z,24.80
2019-03-01T15:22:15.103Z,24.43
2019-03-01T15:24:43.761Z,23.27
2019-03-01T15:27:12.373Z,21.62
2019-03-01T15:29:41.023Z,20.17
2019-03-01T15:32:10.204Z,20.23
2019-03-01T15:34:38.864Z,24.12
2019-03-01T15:37:07.471Z,21.50
2019-03-01T15:39:36.126Z,21.77
2019-03-01T15:42:04.807Z,21.23
2019-03-01T15:44:33.465Z,22.98
2019-03-01T15:47:02.092Z,19.40
2019-03-01T15:49:30.747Z,21.17
2019-03-01T15:51:59.350Z,21.73
2019-03-01T15:54:27.957Z,24.23
2019-03-01T15:56:56.616Z,20.82
2019-03-01T15:59:25.216Z,18.40
2019-03-01T16:01:53.870Z,19.57
2019-03-01T16:04:22.648Z,22.80
2019-03-01T16:06:55.238Z,19.10
2019-03-01T16:09:24.839Z,20.30
2019-03-01T16:11:53.197Z,19.25
2019-03-01T16:14:24.126Z,17.67
2019-03-01T16:16:52.883Z,19.45
2019-03-01T16:19:21.535Z,23.70
2019-03-01T16:21:50.135Z,19.27
2019-03-01T16:24:18.789Z,22.10
2019-03-01T16:26:47.404Z,21.93
2019-03-01T16:29:16.058Z,17.02
2019-03-01T16:31:44.692Z,17.92
2019-03-01T16:34:13.915Z,21.65
2019-03-01T16:36:42.578Z,15.95
2019-03-01T16:39:12.203Z,15.23
2019-03-01T16:41:42.789Z,14.28
2019-03-01T16:44:11.186Z,14.43
2019-03-01T16:46:39.792Z,15.75
2019-03-01T16:49:08.442Z,13.53
2019-03-01T16:51:37.040Z,15.28
2019-03-01T16:54:05.837Z,16.02
2019-03-01T16:56:38.158Z,11.63
2019-03-01T16:59:07.106Z,13.83
2019-03-01T17:01:36.260Z,14.28
2019-03-01T17:04:04.855Z,13.38
2019-03-01T17:06:33.509Z,13.00
2019-03-01T17:09:02.925Z,13.88
2019-03-01T17:11:33.924Z,11.73
2019-03-01T17:14:04.283Z,15.20
2019-03-01T17:16:34.181Z,12.30
2019-03-01T17:19:03.055Z,12.05
2019-03-01T17:21:33.999Z,11.30
2019-03-01T17:24:02.790Z,11.33
2019-03-01T17:26:31.414Z,15.10
2019-03-01T17:29:03.144Z,12.37
2019-03-01T17:31:33.277Z,12.95
2019-03-01T17:34:04.503Z,11.57
2019-03-01T17:36:33.737Z,13.05
2019-03-01T17:39:03.702Z,13.70
2019-03-01T17:41:34.514Z,14.00
2019-03-01T17:44:08.718Z,17.25
2019-03-01T17:46:35.807Z,11.88
2019-03-01T17:49:04.432Z,12.28
2019-03-01T17:51:35.038Z,11.33
2019-03-01T17:54:04.977Z,12.05
2019-03-01T17:56:36.684Z,11.18
2019-03-01T17:59:11.827Z,13.75
2019-03-01T18:01:40.558Z,14.68
2019-03-01T18:04:09.767Z,14.15
2019-03-01T18:06:38.603Z,13.20
2019-03-01T18:09:07.277Z,10.45
2019-03-01T18:11:45.485Z,14.33
2019-03-01T18:14:14.527Z,11.08
2019-03-01T18:16:46.188Z,11.05
2019-03-01T18:19:16.251Z,10.60
2019-03-01T18:21:46.434Z,11.78
2019-03-01T18:24:17.347Z,11.95
2019-03-01T18:26:50.028Z,12.18
2019-03-01T18:29:18.698Z,12.93
2019-03-01T18:31:52.621Z,12.47
2019-03-01T18:34:21.379Z,11.65
2019-03-01T18:36:50.053Z,11.45
2019-03-01T18:39:18.705Z,11.75
2019-03-01T18:41:47.371Z,10.35
2019-03-01T18:44:16.020Z,11.40
2019-03-01T18:46:44.666Z,10.85
2019-03-01T18:49:13.289Z,11.43
2019-03-01T18:51:43.283Z,10.43
2019-03-01T18:54:12.891Z,9.10
2019-03-01T18:56:41.540Z,9.88
2019-03-01T18:59:10.147Z,9.83
2019-03-01T19:01:38.864Z,8.50
2019-03-01T19:04:07.519Z,8.03
2019-03-01T19:06:36.118Z,7.97
2019-03-01T19:09:06.616Z,8.03
2019-03-01T19:11:38.003Z,10.10
2019-03-01T19:14:05.651Z,9.20
2019-03-01T19:16:34.249Z,7.80
2019-03-01T19:19:02.972Z,9.03
2019-03-01T19:21:31.624Z,8.18
2019-03-01T19:24:00.323Z,8.23
2019-03-01T19:26:28.977Z,8.55
2019-03-01T19:28:59.021Z,9.30
2019-03-01T19:31:28.037Z,11.30
2019-03-01T19:33:56.700Z,8.68
2019-03-01T19:36:25.354Z,9.28
2019-03-01T19:38:56.718Z,9.68
2019-03-01T19:41:24.337Z,10.10
2019-03-01T19:43:57.444Z,8.95
2019-03-01T19:46:23.319Z,8.93
2019-03-01T19:48:51.925Z,9.18
2019-03-01T19:51:20.578Z,10.98
2019-03-01T19:53:49.266Z,7.78
2019-03-01T19:56:19.016Z,9.40
2019-03-01T19:58:48.922Z,10.65
2019-03-01T20:01:18.009Z,8.78
2019-03-01T20:03:47.427Z,8.53
2019-03-01T20:06:16.179Z,9.43
2019-03-01T20:08:44.779Z,9.18
2019-03-01T20:11:13.427Z,8.93
2019-03-01T20:13:42.027Z,7.97
2019-03-01T20:16:10.675Z,8.38
2019-03-01T20:18:41.774Z,8.00
2019-03-01T20:21:10.569Z,9.25
2019-03-01T20:23:39.217Z,7.08
2019-03-01T20:26:07.881Z,11.45
2019-03-01T20:28:36.491Z,9.63
2019-03-01T20:31:05.811Z,8.45
2019-03-01T20:33:34.686Z,7.37
2019-03-01T20:36:03.289Z,7.92
2019-03-01T20:38:31.941Z,7.62
2019-03-01T20:41:03.124Z,9.58
2019-03-01T20:43:30.960Z,9.60
2019-03-01T20:45:59.614Z,9.50
2019-03-01T20:48:28.945Z,7.90
2019-03-01T20:50:58.539Z,9.30
2019-03-01T20:53:27.145Z,10.70
2019-03-01T20:55:55.792Z,10.75
2019-03-01T20:58:24.445Z,8.48
2019-03-01T21:00:53.093Z,8.53
2019-03-01T21:03:24.068Z,11.68
2019-03-01T21:05:52.150Z,9.40
2019-03-01T21:08:20.916Z,8.55
2019-03-01T21:10:50.098Z,7.85
2019-03-01T21:13:19.449Z,9.83
2019-03-01T21:15:48.092Z,8.90
2019-03-01T21:18:16.693Z,9.83
2019-03-01T21:20:45.340Z,9.13
2019-03-01T21:23:15.194Z,9.30
2019-03-01T21:25:44.310Z,10.08
2019-03-01T21:28:12.960Z,8.60
2019-03-01T21:30:41.559Z,8.93
2019-03-01T21:33:10.235Z,12.47
2019-03-01T21:35:38.887Z,10.60
2019-03-01T21:38:10.557Z,11.80
2019-03-01T21:40:37.916Z,9.80
2019-03-01T21:43:06.614Z,9.75
2019-03-01T21:45:35.269Z,11.78
2019-03-01T21:48:03.920Z,10.10
2019-03-01T21:50:32.520Z,10.10
2019-03-01T21:53:01.683Z,10.75
2019-03-01T21:55:31.682Z,8.65
2019-03-01T21:58:03.436Z,10.38
2019-03-01T22:00:31.454Z,7.12
2019-03-01T22:03:00.335Z,8.60
2019-03-01T22:05:28.987Z,6.55
2019-03-01T22:07:57.585Z,8.00
2019-03-01T22:10:26.238Z,9.60
2019-03-01T22:12:58.925Z,10.32
2019-03-01T22:15:27.835Z,9.05
2019-03-01T22:17:56.703Z,9.60
2019-03-01T22:20:26.091Z,9.80
2019-03-01T22:22:54.691Z,8.83
2019-03-01T22:25:23.425Z,8.63
2019-03-01T22:27:52.019Z,10.20
2019-03-01T22:30:34.405Z,9.30
2019-03-01T22:33:03.178Z,8.98
2019-03-01T22:35:31.772Z,7.05
2019-03-01T22:38:04.502Z,9.45
2019-03-01T22:40:31.226Z,10.30
2019-03-01T22:42:59.832Z,8.90
2019-03-01T22:45:28.479Z,8.53
2019-03-01T22:47:57.078Z,7.37
2019-03-01T22:50:25.723Z,8.88
2019-03-01T22:52:54.321Z,7.75
2019-03-01T22:55:22.964Z,9.93
2019-03-01T22:57:51.565Z,9.10
2019-03-01T23:00:30.842Z,6.60
2019-03-01T23:02:59.510Z,8.20
2019-03-01T23:05:28.173Z,8.65
2019-03-01T23:07:59.897Z,10.68
2019-03-01T23:10:27.573Z,8.88
2019-03-01T23:12:56.216Z,8.70
2019-03-01T23:15:24.864Z,9.60
2019-03-01T23:17:53.509Z,7.80
2019-03-01T23:20:26.254Z,7.55
2019-03-01T23:22:52.665Z,8.08
2019-03-01T23:25:21.269Z,8.90
2019-03-01T23:27:49.916Z,7.97
2019-03-01T23:30:18.961Z,8.80
2019-03-01T23:32:48.746Z,6.90
2019-03-01T23:35:18.175Z,7.67
2019-03-01T23:37:47.768Z,8.28
2019-03-01T23:40:16.373Z,8.10
2019-03-01T23:42:44.969Z,7.85
2019-03-01T23:45:17.258Z,6.85
2019-03-01T23:47:43.946Z,7.72
2019-03-01T23:50:12.594Z,5.35
2019-03-01T23:52:41.194Z,6.42
2019-03-01T23:55:09.794Z,6.97
2019-03-01T23:57:41.088Z,5.20
